createdAt,value
2023-03-13T00:01:51.843Z,17.12
2023-03-13T00:04:18.297Z,17.07
2023-03-13T00:06:44.572Z,17.05
2023-03-13T00:09:10.880Z,17.02
2023-03-13T00:11:37.272Z,16.99
2023-03-13T00:14:03.490Z,16.96
2023-03-13T00:16:29.952Z,16.93
2023-03-13T00:18:56.482Z,16.90
2023-03-13T00:21:24.016Z,16.88
2023-03-13T00:23:50.278Z,16.85
2023-03-13T00:26:16.613Z,16.83
2023-03-13T00:31:11.353Z,16.79
2023-03-13T00:33:37.699Z,16.76
2023-03-13T00:36:03.966Z,16.73
2023-03-13T00:38:30.289Z,16.73
2023-03-13T00:40:56.730Z,16.71
2023-03-13T00:43:23.018Z,16.68
2023-03-13T00:45:49.387Z,16.67
2023-03-13T00:48:15.727Z,16.65
2023-03-13T00:50:42.027Z,16.63
2023-03-13T00:53:08.391Z,16.60
2023-03-13T00:55:34.699Z,16.58
2023-03-13T00:58:01.069Z,16.57
2023-03-13T01:00:27.358Z,16.54
2023-03-13T01:02:53.687Z,16.53
2023-03-13T01:05:20.065Z,16.50
2023-03-13T01:07:46.328Z,16.48
2023-03-13T01:10:12.674Z,16.46
2023-03-13T01:12:38.926Z,16.43
2023-03-13T01:15:05.639Z,16.41
2023-03-13T01:17:32.033Z,16.38
2023-03-13T01:19:58.388Z,16.36
2023-03-13T01:22:24.699Z,16.34
2023-03-13T01:24:51.076Z,16.32
2023-03-13T01:27:17.503Z,16.28
2023-03-13T01:29:43.871Z,16.27
2023-03-13T01:32:10.173Z,16.24
2023-03-13T01:34:36.505Z,16.22
2023-03-13T01:37:03.575Z,16.20
2023-03-13T01:39:30.048Z,16.18
2023-03-13T01:41:56.651Z,16.16
2023-03-13T01:44:22.920Z,16.14
2023-03-13T01:46:49.657Z,16.13
2023-03-13T01:49:16.059Z,16.11
2023-03-13T01:51:42.402Z,16.09
2023-03-13T01:54:08.840Z,16.07
2023-03-13T01:56:35.244Z,16.05
2023-03-13T01:59:01.577Z,16.03
2023-03-13T02:01:28.320Z,16.02
2023-03-13T02:03:54.668Z,16.00
2023-03-13T02:06:20.971Z,15.98
2023-03-13T02:08:47.474Z,15.98
2023-03-13T02:11:13.872Z,15.96
2023-03-13T02:13:40.337Z,15.94
2023-03-13T02:16:06.719Z,15.92
2023-03-13T02:18:33.191Z,15.91
2023-03-13T02:20:59.502Z,15.89
2023-03-13T02:23:25.906Z,15.88
2023-03-13T02:25:52.190Z,15.87
2023-03-13T02:28:18.571Z,15.85
2023-03-13T02:30:44.811Z,15.85
2023-03-13T02:33:11.128Z,15.83
2023-03-13T02:35:37.523Z,15.82
2023-03-13T02:38:03.870Z,15.81
2023-03-13T02:40:30.211Z,15.79
2023-03-13T02:42:56.630Z,15.78
2023-03-13T02:45:22.893Z,15.76
2023-03-13T02:47:49.224Z,15.76
2023-03-13T02:50:15.512Z,15.75
2023-03-13T02:52:41.782Z,15.74
2023-03-13T02:55:08.104Z,15.73
2023-03-13T02:57:34.448Z,15.73
2023-03-13T03:00:00.716Z,15.71
2023-03-13T03:02:27.087Z,15.70
2023-03-13T03:04:53.386Z,15.69
2023-03-13T03:07:19.693Z,15.68
2023-03-13T03:09:45.944Z,15.67
2023-03-13T03:12:12.228Z,15.64
2023-03-13T03:14:38.565Z,15.63
2023-03-13T03:17:04.865Z,15.62
2023-03-13T03:19:31.227Z,15.61
2023-03-13T03:21:57.490Z,15.59
2023-03-13T03:24:23.817Z,15.58
2023-03-13T03:26:50.103Z,15.57
2023-03-13T03:29:19.499Z,15.56
2023-03-13T03:31:45.867Z,15.54
2023-03-13T03:34:12.287Z,15.53
2023-03-13T03:36:38.574Z,15.51
2023-03-13T03:39:04.843Z,15.50
2023-03-13T03:41:31.148Z,15.48
2023-03-13T03:43:57.503Z,15.47
2023-03-13T03:46:23.971Z,15.47
2023-03-13T03:48:51.370Z,15.44
2023-03-13T03:51:17.591Z,15.43
2023-03-13T03:53:43.873Z,15.43
2023-03-13T03:56:10.158Z,15.41
2023-03-13T03:58:36.402Z,15.40
2023-03-13T04:01:03.008Z,15.38
2023-03-13T04:03:29.594Z,15.37
2023-03-13T04:05:55.895Z,15.36
2023-03-13T04:08:22.151Z,15.33
2023-03-13T04:10:48.452Z,15.31
2023-03-13T04:13:14.715Z,15.29
2023-03-13T04:15:40.933Z,15.28
2023-03-13T04:18:07.373Z,15.26
2023-03-13T04:20:34.021Z,15.25
2023-03-13T04:23:00.366Z,15.23
2023-03-13T04:25:26.619Z,15.23
2023-03-13T04:27:52.941Z,15.21
2023-03-13T04:30:19.239Z,15.19
2023-03-13T04:32:45.635Z,15.18
2023-03-13T04:35:12.087Z,15.17
2023-03-13T04:37:38.414Z,15.17
2023-03-13T04:40:04.711Z,15.16
2023-03-13T04:42:31.059Z,15.17
2023-03-13T04:44:57.302Z,15.15
2023-03-13T04:47:23.584Z,15.14
2023-03-13T04:49:49.876Z,15.14
2023-03-13T04:52:16.197Z,15.13
2023-03-13T04:54:42.539Z,15.12
2023-03-13T04:57:08.866Z,15.12
2023-03-13T04:59:35.230Z,15.11
2023-03-13T05:02:01.516Z,15.11
2023-03-13T05:04:28.028Z,15.04
2023-03-13T05:06:54.379Z,15.09
2023-03-13T05:09:21.831Z,15.08
2023-03-13T05:11:48.417Z,15.07
2023-03-13T05:14:14.929Z,15.08
2023-03-13T05:16:41.309Z,15.06
2023-03-13T05:19:07.979Z,15.05
2023-03-13T05:21:34.357Z,15.05
2023-03-13T05:24:00.744Z,15.04
2023-03-13T05:26:27.075Z,15.03
2023-03-13T05:28:53.471Z,15.04
2023-03-13T05:31:22.177Z,15.04
2023-03-13T05:33:48.707Z,15.03
2023-03-13T05:36:14.985Z,15.02
2023-03-13T05:38:41.534Z,15.01
2023-03-13T05:41:07.829Z,15.01
2023-03-13T05:43:34.424Z,15.00
2023-03-13T05:46:01.033Z,14.99
2023-03-13T05:48:27.362Z,14.99
2023-03-13T05:50:53.717Z,15.05
2023-03-13T05:53:25.911Z,15.29
2023-03-13T05:55:52.279Z,15.60
2023-03-13T05:58:18.716Z,15.87
2023-03-13T06:00:45.140Z,16.11
2023-03-13T06:03:14.211Z,16.30
2023-03-13T06:05:41.019Z,16.45
2023-03-13T06:08:07.346Z,16.61
2023-03-13T06:10:33.750Z,16.74
2023-03-13T06:13:10.525Z,16.86
2023-03-13T06:15:43.755Z,17.02
2023-03-13T06:18:10.262Z,17.10
2023-03-13T06:20:36.615Z,17.19
2023-03-13T06:23:02.928Z,17.27
2023-03-13T06:25:29.704Z,17.33
2023-03-13T06:27:56.188Z,17.40
2023-03-13T06:30:22.644Z,17.45
2023-03-13T06:32:49.335Z,17.50
2023-03-13T06:35:15.882Z,17.56
2023-03-13T06:37:42.654Z,17.61
2023-03-13T06:40:09.184Z,17.65
2023-03-13T06:42:35.470Z,17.69
2023-03-13T06:45:01.743Z,17.73
2023-03-13T06:47:28.141Z,17.78
2023-03-13T06:49:54.448Z,17.82
2023-03-13T06:52:23.264Z,17.85
2023-03-13T06:54:51.149Z,17.90
2023-03-13T06:57:17.474Z,17.92
2023-03-13T06:59:43.837Z,17.95
2023-03-13T07:02:10.192Z,17.98
2023-03-13T07:04:36.483Z,18.01
2023-03-13T07:07:02.738Z,18.04
2023-03-13T07:09:29.255Z,18.06
2023-03-13T07:11:55.771Z,18.09
2023-03-13T07:14:22.113Z,18.13
2023-03-13T07:16:48.579Z,18.16
2023-03-13T07:19:15.082Z,18.19
2023-03-13T07:21:41.471Z,18.23
2023-03-13T07:24:08.139Z,18.27
2023-03-13T07:26:34.988Z,18.31
2023-03-13T07:29:01.390Z,18.34
2023-03-13T07:31:28.064Z,18.38
2023-03-13T07:33:54.519Z,18.43
2023-03-13T07:36:20.895Z,18.45
2023-03-13T07:38:47.222Z,18.48
2023-03-13T07:41:13.559Z,18.51
2023-03-13T07:43:39.893Z,18.52
2023-03-13T07:46:06.328Z,18.54
2023-03-13T07:48:32.665Z,18.52
2023-03-13T07:50:59.035Z,18.53
2023-03-13T07:53:25.396Z,18.54
2023-03-13T07:55:51.730Z,18.56
2023-03-13T07:58:18.070Z,18.58
2023-03-13T08:00:44.428Z,18.60
2023-03-13T08:03:11.205Z,18.62
2023-03-13T08:05:37.672Z,18.64
2023-03-13T08:08:04.138Z,18.64
2023-03-13T08:10:30.557Z,18.65
2023-03-13T08:12:57.288Z,18.65
2023-03-13T08:15:23.685Z,18.66
2023-03-13T08:17:50.146Z,18.67
2023-03-13T08:20:16.490Z,18.67
2023-03-13T08:22:42.824Z,18.67
2023-03-13T08:25:09.087Z,18.67
2023-03-13T08:27:35.448Z,18.67
2023-03-13T08:30:01.840Z,18.68
2023-03-13T08:32:28.171Z,18.67
2023-03-13T08:34:54.525Z,18.67
2023-03-13T08:37:24.046Z,18.66
2023-03-13T08:39:50.525Z,18.66
2023-03-13T08:42:16.995Z,18.67
2023-03-13T08:44:43.627Z,18.66
2023-03-13T08:47:10.042Z,18.67
2023-03-13T08:49:36.337Z,18.67
2023-03-13T08:52:02.644Z,18.67
2023-03-13T08:54:28.992Z,18.68
2023-03-13T08:56:55.820Z,18.69
2023-03-13T08:59:22.321Z,18.70
2023-03-13T09:01:48.844Z,18.72
2023-03-13T09:04:15.519Z,18.76
2023-03-13T09:06:41.866Z,18.80
2023-03-13T09:09:08.525Z,18.82
2023-03-13T09:11:34.813Z,18.87
2023-03-13T09:14:01.112Z,18.98
2023-03-13T09:16:27.468Z,19.02
2023-03-13T09:18:53.806Z,19.17
2023-03-13T09:21:20.306Z,19.23
2023-03-13T09:23:46.759Z,19.23
2023-03-13T09:26:13.182Z,19.22
2023-03-13T09:28:39.563Z,19.17
2023-03-13T09:31:06.021Z,19.12
2023-03-13T09:33:32.435Z,19.09
2023-03-13T09:35:58.793Z,19.08
2023-03-13T09:38:25.233Z,19.12
2023-03-13T09:41:05.169Z,19.15
2023-03-13T09:43:32.198Z,19.15
2023-03-13T09:45:58.595Z,19.16
2023-03-13T09:48:25.132Z,19.18
2023-03-13T09:50:51.606Z,19.21
2023-03-13T09:53:17.939Z,19.23
2023-03-13T09:55:44.252Z,19.25
2023-03-13T09:58:10.589Z,19.24
2023-03-13T10:00:36.895Z,19.26
2023-03-13T10:03:03.305Z,19.26
2023-03-13T10:05:29.637Z,19.28
2023-03-13T10:07:56.033Z,19.28
2023-03-13T10:10:22.446Z,19.26
2023-03-13T10:12:48.786Z,19.27
2023-03-13T10:15:15.186Z,19.26
2023-03-13T10:17:41.503Z,19.27
2023-03-13T10:20:07.843Z,19.26
2023-03-13T10:22:34.128Z,19.25
2023-03-13T10:25:00.447Z,19.25
2023-03-13T10:27:26.820Z,19.27
2023-03-13T10:29:53.240Z,19.28
2023-03-13T10:32:19.661Z,19.31
2023-03-13T10:34:46.170Z,19.33
2023-03-13T10:37:12.555Z,19.33
2023-03-13T10:39:38.874Z,19.32
2023-03-13T10:42:05.225Z,19.32
2023-03-13T10:44:31.549Z,19.32
2023-03-13T10:46:58.562Z,19.32
2023-03-13T10:49:24.917Z,19.37
2023-03-13T10:51:51.253Z,19.45
2023-03-13T10:54:17.597Z,19.51
2023-03-13T10:56:47.034Z,19.54
2023-03-13T10:59:13.524Z,19.54
2023-03-13T11:01:39.840Z,19.53
2023-03-13T11:04:06.719Z,19.51
2023-03-13T11:06:33.324Z,19.51
2023-03-13T11:08:59.740Z,19.51
2023-03-13T11:11:26.044Z,19.52
2023-03-13T11:13:52.357Z,19.56
2023-03-13T11:16:18.887Z,19.64
2023-03-13T11:18:45.600Z,19.65
2023-03-13T11:21:18.172Z,19.63
2023-03-13T11:23:45.043Z,19.63
2023-03-13T11:26:11.355Z,19.64
2023-03-13T11:28:37.746Z,19.65
2023-03-13T11:31:04.055Z,19.68
2023-03-13T11:33:30.434Z,19.72
2023-03-13T11:35:56.795Z,19.75
2023-03-13T11:38:23.159Z,19.75
2023-03-13T11:40:49.770Z,19.77
2023-03-13T11:43:25.018Z,19.78
2023-03-13T11:45:52.494Z,19.79
2023-03-13T11:48:18.872Z,19.78
2023-03-13T11:50:45.274Z,19.76
2023-03-13T11:53:11.783Z,19.76
2023-03-13T11:55:38.402Z,19.78
2023-03-13T11:58:04.822Z,19.79
2023-03-13T12:00:31.132Z,19.80
2023-03-13T12:03:00.277Z,19.84
2023-03-13T12:05:26.702Z,19.86
2023-03-13T12:07:53.189Z,19.86
2023-03-13T12:10:19.882Z,19.93
2023-03-13T12:12:46.837Z,19.93
2023-03-13T12:15:13.225Z,19.94
2023-03-13T12:17:39.749Z,19.94
2023-03-13T12:20:06.084Z,19.93
2023-03-13T12:22:32.390Z,19.94
2023-03-13T12:24:58.817Z,19.99
2023-03-13T12:27:25.273Z,20.02
2023-03-13T12:29:51.572Z,20.04
2023-03-13T12:32:17.936Z,20.03
2023-03-13T12:34:44.298Z,20.02
2023-03-13T12:37:10.748Z,20.03
2023-03-13T12:39:37.572Z,20.04
2023-03-13T12:42:04.001Z,20.02
2023-03-13T12:44:30.298Z,20.02
2023-03-13T12:46:56.908Z,20.03
2023-03-13T12:49:23.323Z,20.02
2023-03-13T12:51:49.685Z,20.02
2023-03-13T12:54:16.213Z,20.02
2023-03-13T12:56:42.664Z,20.02
2023-03-13T12:59:08.962Z,20.04
2023-03-13T13:01:35.372Z,20.05
2023-03-13T13:04:01.990Z,20.04
2023-03-13T13:06:28.410Z,20.03
2023-03-13T13:08:54.764Z,20.02
2023-03-13T13:11:22.861Z,20.06
2023-03-13T13:13:50.636Z,20.06
2023-03-13T13:16:17.192Z,20.07
2023-03-13T13:18:43.561Z,20.10
2023-03-13T13:21:09.856Z,20.11
2023-03-13T13:23:36.164Z,20.10
2023-03-13T13:26:02.641Z,20.10
2023-03-13T13:28:28.898Z,20.10
2023-03-13T13:30:56.151Z,20.07
2023-03-13T13:33:22.662Z,20.05
2023-03-13T13:35:48.992Z,20.05
2023-03-13T13:38:15.406Z,20.09
2023-03-13T13:40:41.738Z,20.09
2023-03-13T13:43:08.119Z,20.09
2023-03-13T13:45:34.412Z,20.07
2023-03-13T13:48:00.746Z,20.09
2023-03-13T13:50:27.119Z,20.09
2023-03-13T13:52:53.451Z,20.10
2023-03-13T13:55:19.763Z,20.09
2023-03-13T13:57:46.113Z,20.10
2023-03-13T14:00:12.381Z,20.13
2023-03-13T14:02:38.753Z,20.12
2023-03-13T14:05:05.328Z,20.13
2023-03-13T14:07:31.757Z,20.13
2023-03-13T14:09:58.231Z,20.14
2023-03-13T14:12:24.573Z,20.17
2023-03-13T14:14:50.907Z,20.20
2023-03-13T14:17:17.161Z,20.22
2023-03-13T14:19:43.505Z,20.23
2023-03-13T14:22:09.783Z,20.23
2023-03-13T14:24:36.204Z,20.23
2023-03-13T14:27:03.494Z,20.22
2023-03-13T14:29:29.826Z,20.21
2023-03-13T14:31:56.191Z,20.22
2023-03-13T14:34:22.558Z,20.21
2023-03-13T14:36:48.957Z,20.20
2023-03-13T14:39:15.430Z,20.21
2023-03-13T14:41:42.014Z,20.21
2023-03-13T14:44:08.422Z,20.22
2023-03-13T14:46:34.923Z,20.20
2023-03-13T14:49:01.493Z,20.19
2023-03-13T14:51:27.885Z,20.16
2023-03-13T14:53:54.259Z,20.13
2023-03-13T14:56:20.613Z,20.10
2023-03-13T14:58:46.936Z,20.08
2023-03-13T15:01:13.298Z,20.07
2023-03-13T15:03:39.667Z,20.06
2023-03-13T15:06:06.137Z,20.06
2023-03-13T15:08:32.440Z,20.05
2023-03-13T15:10:58.916Z,20.04
2023-03-13T15:13:25.241Z,20.02
2023-03-13T15:15:51.656Z,20.01
2023-03-13T15:18:17.943Z,19.99
2023-03-13T15:20:44.385Z,19.97
2023-03-13T15:23:10.793Z,19.96
2023-03-13T15:25:37.141Z,19.95
2023-03-13T15:28:03.470Z,19.93
2023-03-13T15:30:30.190Z,19.92
2023-03-13T15:32:56.624Z,19.91
2023-03-13T15:35:22.998Z,19.90
2023-03-13T15:37:49.489Z,19.88
2023-03-13T15:40:15.803Z,19.86
2023-03-13T15:42:42.199Z,19.87
2023-03-13T15:45:08.723Z,19.87
2023-03-13T15:47:35.199Z,19.88
2023-03-13T15:50:01.485Z,19.89
2023-03-13T15:52:27.830Z,19.90
2023-03-13T15:54:54.182Z,19.89
2023-03-13T15:57:20.481Z,19.90
2023-03-13T15:59:46.846Z,19.91
2023-03-13T16:02:13.095Z,19.90
2023-03-13T16:04:39.454Z,19.89
2023-03-13T16:07:05.875Z,19.90
2023-03-13T16:09:32.246Z,19.92
2023-03-13T16:11:58.638Z,19.94
2023-03-13T16:14:24.963Z,19.94
2023-03-13T16:16:51.376Z,19.94
2023-03-13T16:19:17.759Z,19.94
2023-03-13T16:21:44.076Z,19.95
2023-03-13T16:24:10.402Z,19.97
2023-03-13T16:26:36.776Z,19.99
2023-03-13T16:29:03.338Z,19.99
2023-03-13T16:31:29.920Z,20.00
2023-03-13T16:33:56.341Z,20.00
2023-03-13T16:36:22.704Z,20.00
2023-03-13T16:38:49.070Z,20.00
2023-03-13T16:41:15.342Z,20.02
2023-03-13T16:43:41.652Z,20.02
2023-03-13T16:46:08.054Z,20.04
2023-03-13T16:48:34.578Z,20.03
2023-03-13T16:51:00.903Z,20.02
2023-03-13T16:53:27.296Z,20.03
2023-03-13T16:55:53.632Z,20.03
2023-03-13T16:58:19.983Z,20.02
2023-03-13T17:00:59.332Z,20.02
2023-03-13T17:03:30.864Z,20.04
2023-03-13T17:06:00.722Z,20.04
2023-03-13T17:08:27.085Z,20.04
2023-03-13T17:10:53.472Z,20.05
2023-03-13T17:13:19.840Z,20.05
2023-03-13T17:15:46.253Z,20.06
2023-03-13T17:18:12.686Z,20.07
2023-03-13T17:20:39.070Z,20.08
2023-03-13T17:23:05.362Z,20.10
2023-03-13T17:25:34.688Z,20.11
2023-03-13T17:28:01.068Z,20.13
2023-03-13T17:30:27.430Z,20.12
2023-03-13T17:32:53.871Z,20.12
2023-03-13T17:35:20.411Z,20.13
2023-03-13T17:37:46.874Z,20.13
2023-03-13T17:40:13.239Z,20.13
2023-03-13T17:42:39.599Z,20.14
2023-03-13T17:45:06.213Z,20.14
2023-03-13T17:47:32.626Z,20.14
2023-03-13T17:49:59.185Z,20.14
2023-03-13T17:52:25.566Z,20.14
2023-03-13T17:54:51.930Z,20.13
2023-03-13T17:57:18.282Z,20.12
2023-03-13T17:59:45.016Z,20.12
2023-03-13T18:02:11.349Z,20.11
2023-03-13T18:04:37.712Z,20.10
2023-03-13T18:07:04.007Z,20.10
2023-03-13T18:09:30.376Z,20.09
2023-03-13T18:11:56.833Z,20.08
2023-03-13T18:14:23.123Z,20.08
2023-03-13T18:16:49.440Z,20.07
2023-03-13T18:19:15.867Z,20.08
2023-03-13T18:21:42.200Z,20.08
2023-03-13T18:24:08.918Z,20.09
2023-03-13T18:26:35.392Z,20.09
2023-03-13T18:29:01.681Z,20.09
2023-03-13T18:31:28.070Z,20.10
2023-03-13T18:33:54.516Z,20.10
2023-03-13T18:36:20.880Z,20.11
2023-03-13T18:38:47.546Z,20.11
2023-03-13T18:41:13.851Z,20.10
2023-03-13T18:43:40.137Z,20.10
2023-03-13T18:46:06.452Z,20.11
2023-03-13T18:48:32.752Z,20.09
2023-03-13T18:50:59.122Z,20.08
2023-03-13T18:53:27.088Z,20.09
2023-03-13T18:55:53.412Z,20.09
2023-03-13T18:58:19.751Z,20.08
2023-03-13T19:00:46.214Z,20.06
2023-03-13T19:03:12.605Z,20.06
2023-03-13T19:05:38.895Z,20.05
2023-03-13T19:08:05.358Z,20.03
2023-03-13T19:10:31.755Z,20.03
2023-03-13T19:12:58.068Z,20.03
2023-03-13T19:15:24.365Z,20.03
2023-03-13T19:17:50.749Z,20.03
2023-03-13T19:20:17.011Z,20.05
2023-03-13T19:22:43.270Z,20.06
2023-03-13T19:25:09.715Z,20.07
2023-03-13T19:27:35.991Z,20.07
2023-03-13T19:30:02.268Z,20.08
2023-03-13T19:32:28.638Z,20.09
2023-03-13T19:34:54.943Z,20.10
2023-03-13T19:37:21.245Z,20.10
2023-03-13T19:39:47.503Z,20.14
2023-03-13T19:42:13.798Z,20.14
2023-03-13T19:44:40.149Z,20.15
2023-03-13T19:47:06.528Z,20.19
2023-03-13T19:49:32.831Z,20.20
2023-03-13T19:51:59.185Z,20.21
2023-03-13T19:54:25.697Z,20.22
2023-03-13T19:56:51.987Z,20.22
2023-03-13T19:59:18.481Z,20.23
2023-03-13T20:01:44.998Z,20.25
2023-03-13T20:04:11.634Z,20.24
2023-03-13T20:06:37.930Z,20.24
2023-03-13T20:09:04.290Z,20.23
2023-03-13T20:11:30.573Z,20.23
2023-03-13T20:13:56.985Z,20.23
2023-03-13T20:16:23.288Z,20.23
2023-03-13T20:18:49.655Z,20.22
2023-03-13T20:21:16.020Z,20.21
2023-03-13T20:23:42.324Z,20.20
2023-03-13T20:26:08.835Z,20.19
2023-03-13T20:28:35.185Z,20.19
2023-03-13T20:31:01.563Z,20.18
2023-03-13T20:33:27.882Z,20.16
2023-03-13T20:35:55.003Z,20.15
2023-03-13T20:38:21.725Z,20.14
2023-03-13T20:40:48.035Z,20.13
2023-03-13T20:43:14.425Z,20.12
2023-03-13T20:45:40.846Z,20.10
2023-03-13T20:48:07.350Z,20.09
2023-03-13T20:50:33.629Z,20.08
2023-03-13T20:52:59.972Z,20.07
2023-03-13T20:55:26.301Z,20.06
2023-03-13T20:57:59.560Z,20.05
2023-03-13T21:00:30.524Z,20.04
2023-03-13T21:02:57.113Z,20.03
2023-03-13T21:05:23.604Z,20.01
2023-03-13T21:07:49.923Z,20.00
2023-03-13T21:10:16.242Z,20.01
2023-03-13T21:12:42.539Z,20.01
2023-03-13T21:15:08.840Z,20.01
2023-03-13T21:17:35.277Z,20.03
2023-03-13T21:20:01.609Z,20.05
2023-03-13T21:22:28.003Z,20.07
2023-03-13T21:24:54.328Z,20.09
2023-03-13T21:27:20.654Z,20.12
2023-03-13T21:29:47.735Z,20.13
2023-03-13T21:32:14.037Z,20.17
2023-03-13T21:34:40.330Z,20.17
2023-03-13T21:37:06.798Z,20.18
2023-03-13T21:39:33.305Z,20.20
2023-03-13T21:41:59.599Z,20.20
2023-03-13T21:44:27.357Z,20.21
2023-03-13T21:46:53.955Z,20.22
2023-03-13T21:49:20.269Z,20.23
2023-03-13T21:51:46.704Z,20.24
2023-03-13T21:54:14.049Z,20.24
2023-03-13T21:56:40.337Z,20.26
2023-03-13T21:59:06.746Z,20.26
2023-03-13T22:01:33.068Z,20.26
2023-03-13T22:03:59.855Z,20.25
2023-03-13T22:06:26.233Z,20.25
2023-03-13T22:08:52.679Z,20.24
2023-03-13T22:11:19.003Z,20.24
2023-03-13T22:13:45.285Z,20.23
2023-03-13T22:16:11.668Z,20.22
2023-03-13T22:18:37.963Z,20.21
2023-03-13T22:21:04.306Z,20.20
2023-03-13T22:23:30.610Z,20.19
2023-03-13T22:25:56.973Z,20.18
2023-03-13T22:28:23.414Z,20.15
2023-03-13T22:30:49.991Z,20.14
2023-03-13T22:33:16.400Z,20.13
2023-03-13T22:35:42.812Z,20.13
2023-03-13T22:38:09.193Z,20.11
2023-03-13T22:40:35.695Z,20.09
2023-03-13T22:43:02.012Z,20.08
2023-03-13T22:45:28.372Z,20.07
2023-03-13T22:47:54.793Z,20.05
2023-03-13T22:50:21.128Z,20.04
2023-03-13T22:52:47.570Z,20.03
2023-03-13T22:55:14.739Z,20.01
2023-03-13T22:57:41.101Z,19.99
2023-03-13T23:00:07.340Z,19.98
2023-03-13T23:02:33.614Z,19.97
2023-03-13T23:04:59.968Z,19.95
2023-03-13T23:07:26.475Z,19.94
2023-03-13T23:09:52.838Z,19.93
2023-03-13T23:12:19.146Z,19.90
2023-03-13T23:14:45.480Z,19.88
2023-03-13T23:17:12.032Z,19.78
2023-03-13T23:19:38.353Z,19.81
2023-03-13T23:22:04.662Z,19.79
2023-03-13T23:24:30.971Z,19.73
2023-03-13T23:26:57.479Z,19.66
2023-03-13T23:29:23.982Z,19.58
2023-03-13T23:31:50.328Z,19.50
2023-03-13T23:34:16.676Z,19.42
2023-03-13T23:36:43.193Z,19.38
2023-03-13T23:39:09.562Z,19.29
2023-03-13T23:41:35.900Z,19.25
2023-03-13T23:44:02.380Z,19.20
2023-03-13T23:46:28.838Z,19.14
2023-03-13T23:48:55.201Z,19.09
2023-03-13T23:51:21.563Z,19.05
2023-03-13T23:53:47.822Z,19.00
2023-03-13T23:56:14.089Z,18.95
2023-03-13T23:58:40.413Z,18.90
